Time;durP1;ratioP1;P1;durP2;ratioP2;P2;SDS_P1;SDS_P2;PMS_P1;PMS_P2;Temp;Humidity;BMP_temperature;BMP_pressure;BME280_temperature;BME280_humidity;BME280_pressure;Samples;Min_cycle;Max_cycle;Signal;HPM_P1;HPM_P2
2019/10/30 00:01:51;;;;;;;9.4;8.5;;;;;;;;;;;;;
2019/10/30 00:04:19;;;;;;;9.7;8.8;;;;;;;;;;;;;
2019/10/30 00:06:42;;;;;;;9.8;8.9;;;;;;;;;;;;;
2019/10/30 00:09:06;;;;;;;8.9;8.1;;;;;;;;;;;;;
2019/10/30 00:11:32;;;;;;;9.6;8.7;;;;;;;;;;;;;
2019/10/30 00:14:00;;;;;;;10.8;9.8;;;;;;;;;;;;;
2019/10/30 00:16:26;;;;;;;10.3;9.4;;;;;;;;;;;;;
2019/10/30 00:18:51;;;;;;;10.8;9.8;;;;;;;;;;;;;
2019/10/30 00:21:18;;;;;;;11.1;10.1;;;;;;;;;;;;;
2019/10/30 00:23:41;;;;;;;10.1;9.2;;;;;;;;;;;;;
2019/10/30 00:26:07;;;;;;;10.8;9.8;;;;;;;;;;;;;
2019/10/30 00:28:32;;;;;;;10.4;9.4;;;;;;;;;;;;;
2019/10/30 00:30:58;;;;;;;7.6;6.9;;;;;;;;;;;;;
2019/10/30 00:33:24;;;;;;;8.8;8;;;;;;;;;;;;;
2019/10/30 00:35:48;;;;;;;7.5;6.9;;;;;;;;;;;;;
2019/10/30 00:38:12;;;;;;;9.1;8.3;;;;;;;;;;;;;
2019/10/30 00:40:39;;;;;;;9.7;8.8;;;;;;;;;;;;;
2019/10/30 00:43:04;;;;;;;9.9;9;;;;;;;;;;;;;
2019/10/30 00:45:30;;;;;;;11.3;10.2;;;;;;;;;;;;;
2019/10/30 00:47:59;;;;;;;11.8;10.7;;;;;;;;;;;;;
2019/10/30 00:50:22;;;;;;;11.4;10.3;;;;;;;;;;;;;
2019/10/30 00:52:45;;;;;;;12.5;11.2;;;;;;;;;;;;;
2019/10/30 00:55:14;;;;;;;11.9;10.8;;;;;;;;;;;;;
2019/10/30 00:57:39;;;;;;;12.7;11.5;;;;;;;;;;;;;
2019/10/30 01:00:20;;;;;;;13;11.7;;;;;;;;;;;;;
2019/10/30 01:02:45;;;;;;;13.1;11.8;;;;;;;;;;;;;
2019/10/30 01:05:08;;;;;;;13.5;12.1;;;;;;;;;;;;;
2019/10/30 01:07:35;;;;;;;13.6;12.3;;;;;;;;;;;;;
2019/10/30 01:10:01;;;;;;;14;12.6;;;;;;;;;;;;;
2019/10/30 01:12:27;;;;;;;13.4;12.1;;;;;;;;;;;;;
2019/10/30 01:14:50;;;;;;;14;12.7;;;;;;;;;;;;;
2019/10/30 01:17:17;;;;;;;14.9;13.5;;;;;;;;;;;;;
2019/10/30 01:19:44;;;;;;;17;15.3;;;;;;;;;;;;;
2019/10/30 01:22:07;;;;;;;15.8;14.2;;;;;;;;;;;;;
2019/10/30 01:24:33;;;;;;;14.4;13;;;;;;;;;;;;;
2019/10/30 01:27:16;;;;;;;13.9;12.6;;;;;;;;;;;;;
2019/10/30 01:29:26;;;;;;;15.5;14.1;;;;;;;;;;;;;
2019/10/30 01:31:56;;;;;;;16;14.4;;;;;;;;;;;;;
2019/10/30 01:34:20;;;;;;;17.9;16.1;;;;;;;;;;;;;
2019/10/30 01:36:44;;;;;;;17.7;16;;;;;;;;;;;;;
2019/10/30 01:39:09;;;;;;;18;16.2;;;;;;;;;;;;;
2019/10/30 01:41:38;;;;;;;17.1;15.4;;;;;;;;;;;;;
2019/10/30 01:44:04;;;;;;;16.3;14.7;;;;;;;;;;;;;
2019/10/30 01:48:50;;;;;;;16.4;14.7;;;;;;;;;;;;;
2019/10/30 01:51:22;;;;;;;17;15.3;;;;;;;;;;;;;
2019/10/30 01:56:15;;;;;;;15.4;13.9;;;;;;;;;;;;;
2019/10/30 01:58:36;;;;;;;15.6;14.1;;;;;;;;;;;;;
2019/10/30 02:01:02;;;;;;;15.5;14;;;;;;;;;;;;;
2019/10/30 02:06:20;;;;;;;16.5;14.9;;;;;;;;;;;;;
2019/10/30 02:08:48;;;;;;;16.3;14.7;;;;;;;;;;;;;
2019/10/30 02:11:13;;;;;;;17.1;15.3;;;;;;;;;;;;;
2019/10/30 02:13:39;;;;;;;18;16.1;;;;;;;;;;;;;
2019/10/30 02:16:05;;;;;;;16.1;14.5;;;;;;;;;;;;;
2019/10/30 02:18:29;;;;;;;16.2;14.6;;;;;;;;;;;;;
2019/10/30 02:20:55;;;;;;;16.5;14.7;;;;;;;;;;;;;
2019/10/30 02:23:24;;;;;;;16.6;14.9;;;;;;;;;;;;;
2019/10/30 02:25:47;;;;;;;16.7;14.9;;;;;;;;;;;;;
2019/10/30 02:33:10;;;;;;;18;16.2;;;;;;;;;;;;;
2019/10/30 02:35:28;;;;;;;16.7;15.1;;;;;;;;;;;;;
2019/10/30 02:37:53;;;;;;;18.2;16.5;;;;;;;;;;;;;
2019/10/30 02:40:17;;;;;;;17.6;15.8;;;;;;;;;;;;;
2019/10/30 02:42:45;;;;;;;17.5;15.8;;;;;;;;;;;;;
2019/10/30 02:45:09;;;;;;;16.7;15.1;;;;;;;;;;;;;
2019/10/30 02:47:34;;;;;;;16.8;15.1;;;;;;;;;;;;;
2019/10/30 02:49:57;;;;;;;17.2;15.5;;;;;;;;;;;;;
2019/10/30 02:52:29;;;;;;;18.2;16.3;;;;;;;;;;;;;
2019/10/30 02:54:53;;;;;;;17.1;15.4;;;;;;;;;;;;;
2019/10/30 02:57:19;;;;;;;15.9;14.4;;;;;;;;;;;;;
2019/10/30 02:59:45;;;;;;;16.6;14.9;;;;;;;;;;;;;
2019/10/30 03:02:12;;;;;;;16.1;14.5;;;;;;;;;;;;;
2019/10/30 03:04:39;;;;;;;15.4;13.9;;;;;;;;;;;;;
2019/10/30 03:07:03;;;;;;;16.6;14.9;;;;;;;;;;;;;
2019/10/30 03:09:28;;;;;;;16.2;14.6;;;;;;;;;;;;;
2019/10/30 03:11:53;;;;;;;16.9;15.2;;;;;;;;;;;;;
2019/10/30 03:14:20;;;;;;;17.8;16.1;;;;;;;;;;;;;
2019/10/30 03:16:43;;;;;;;17.6;15.9;;;;;;;;;;;;;
2019/10/30 03:19:09;;;;;;;17.9;16.1;;;;;;;;;;;;;
2019/10/30 03:21:34;;;;;;;17.8;16.1;;;;;;;;;;;;;
2019/10/30 03:24:01;;;;;;;18.2;16.4;;;;;;;;;;;;;
2019/10/30 03:26:28;;;;;;;19.2;17.1;;;;;;;;;;;;;
2019/10/30 03:28:53;;;;;;;16.7;15;;;;;;;;;;;;;
2019/10/30 03:31:21;;;;;;;18.7;16.7;;;;;;;;;;;;;
2019/10/30 03:33:46;;;;;;;17.9;16.1;;;;;;;;;;;;;
2019/10/30 03:36:11;;;;;;;17.7;15.9;;;;;;;;;;;;;
2019/10/30 03:38:37;;;;;;;17.4;15.5;;;;;;;;;;;;;
2019/10/30 03:41:04;;;;;;;18.2;16.3;;;;;;;;;;;;;
2019/10/30 03:43:29;;;;;;;19.1;17.1;;;;;;;;;;;;;
2019/10/30 03:45:58;;;;;;;18;16.1;;;;;;;;;;;;;
2019/10/30 03:48:18;;;;;;;15.5;14;;;;;;;;;;;;;
2019/10/30 03:50:44;;;;;;;15.8;14.3;;;;;;;;;;;;;
2019/10/30 03:53:09;;;;;;;15.9;14.4;;;;;;;;;;;;;
2019/10/30 03:55:34;;;;;;;16.6;14.9;;;;;;;;;;;;;
2019/10/30 03:58:01;;;;;;;16.7;15;;;;;;;;;;;;;
2019/10/30 04:02:40;;;;;;;16;14.5;;;;;;;7.76;85.62598;942.5421;;;;
2019/10/30 04:05:07;;;;;;;16.4;14.8;;;;;;;7.75;85.44434;942.5228;;;;
2019/10/30 04:07:35;;;;;;;15.3;13.7;;;;;;;7.74;85.58789;942.4797;;;;
2019/10/30 04:10:07;;;;;;;16.1;14.5;;;;;;;7.69;85.80371;942.4498;;;;
2019/10/30 04:12:27;;;;;;;15.9;14.4;;;;;;;7.69;85.94043;942.5101;;;;
2019/10/30 04:14:53;;;;;;;17;15.3;;;;;;;7.68;86.18945;942.5098;;;;
2019/10/30 04:17:18;;;;;;;16.2;14.6;;;;;;;7.69;86.30469;942.5664;;;;
2019/10/30 04:19:47;;;;;;;17.4;15.6;;;;;;;7.66;86.23145;942.5134;;;;
2019/10/30 04:22:11;;;;;;;17.7;15.9;;;;;;;7.65;86.10449;942.483;;;;
2019/10/30 04:24:40;;;;;;;18.6;16.1;;;;;;;7.65;86.25;942.5122;;;;
2019/10/30 04:27:03;;;;;;;17.4;15.6;;;;;;;7.66;86.29785;942.5767;;;;
2019/10/30 04:29:29;;;;;;;16.7;15;;;;;;;7.71;85.83203;942.5844;;;;
2019/10/30 04:31:59;;;;;;;16.6;15;;;;;;;7.71;85.75293;942.5408;;;;
2019/10/30 04:34:20;;;;;;;17.5;15.8;;;;;;;7.7;85.85449;942.5352;;;;
2019/10/30 04:36:57;;;;;;;17.1;15.4;;;;;;;7.67;86.07227;942.5444;;;;
2019/10/30 04:39:17;;;;;;;16.9;15.2;;;;;;;7.7;85.93262;942.5586;;;;
2019/10/30 04:41:42;;;;;;;16.6;14.9;;;;;;;7.64;85.81934;942.5652;;;;
2019/10/30 04:44:09;;;;;;;18;16.1;;;;;;;7.62;86.36035;942.4917;;;;
2019/10/30 04:46:35;;;;;;;18.5;16.6;;;;;;;7.56;86.24512;942.5541;;;;
2019/10/30 04:49:02;;;;;;;17.9;16.1;;;;;;;7.63;86.29199;942.5853;;;;
2019/10/30 04:51:39;;;;;;;18.4;16.5;;;;;;;7.59;86.54785;942.5327;;;;
2019/10/30 04:54:12;;;;;;;18.8;16.8;;;;;;;7.56;86.5293;942.5516;;;;
2019/10/30 04:56:38;;;;;;;17.8;16;;;;;;;7.61;85.91406;942.5683;;;;
2019/10/30 04:59:03;;;;;;;17.6;15.9;;;;;;;7.59;86.05664;942.5745;;;;
2019/10/30 05:01:34;;;;;;;17.9;16.1;;;;;;;7.58;86.10156;942.5742;;;;
2019/10/30 05:03:59;;;;;;;17.7;16;;;;;;;7.55;86.03906;942.6075;;;;
2019/10/30 05:06:28;;;;;;;17;15.3;;;;;;;7.51;86.26855;942.6523;;;;
2019/10/30 05:08:53;;;;;;;17;15.2;;;;;;;7.42;86.47754;942.6094;;;;
2019/10/30 05:11:24;;;;;;;15.9;14.2;;;;;;;7.57;85.99609;942.7039;;;;
2019/10/30 05:13:49;;;;;;;15.1;13.6;;;;;;;7.61;85.9502;942.6761;;;;
2019/10/30 05:16:34;;;;;;;16.1;14.5;;;;;;;7.59;86.19629;942.772;;;;
2019/10/30 05:18:49;;;;;;;16.1;14.3;;;;;;;7.64;85.71582;942.8265;;;;
2019/10/30 05:21:12;;;;;;;14.8;13.4;;;;;;;7.55;86.16406;942.869;;;;
2019/10/30 05:23:38;;;;;;;14;12.6;;;;;;;7.27;86.75391;942.8585;;;;
2019/10/30 05:26:09;;;;;;;14.4;12.9;;;;;;;7.37;86.76074;942.9047;;;;
2019/10/30 05:28:32;;;;;;;13.5;12.1;;;;;;;7.34;86.77832;942.8762;;;;
2019/10/30 05:30:57;;;;;;;12.9;11.7;;;;;;;7.3;86.4082;942.8767;;;;
2019/10/30 05:33:25;;;;;;;12.8;11.5;;;;;;;7.39;86.20117;942.976;;;;
2019/10/30 05:35:48;;;;;;;12;10.8;;;;;;;7.34;86.30371;943.0164;;;;
2019/10/30 05:38:14;;;;;;;10.2;9.2;;;;;;;7.24;85.8418;943.0295;;;;
2019/10/30 05:40:39;;;;;;;9.5;8.6;;;;;;;7.21;86.19727;943.0886;;;;
2019/10/30 05:43:12;;;;;;;9.6;8.6;;;;;;;7.22;86.07422;943.1144;;;;
2019/10/30 05:45:39;;;;;;;10.3;9.3;;;;;;;7.3;85.85254;943.1856;;;;
2019/10/30 05:48:07;;;;;;;10.1;9;;;;;;;7.38;85.51563;943.1886;;;;
2019/10/30 05:50:32;;;;;;;9.7;8.8;;;;;;;7.35;85.4082;943.2164;;;;
2019/10/30 05:52:59;;;;;;;10;9;;;;;;;7.33;85.69043;943.2539;;;;
2019/10/30 05:55:26;;;;;;;14.3;12.9;;;;;;;7.22;85.9043;943.3141;;;;
2019/10/30 05:57:52;;;;;;;9.4;8.5;;;;;;;7.2;86.06934;943.3351;;;;
2019/10/30 06:00:19;;;;;;;9.6;8.6;;;;;;;7.26;86.22949;943.3737;;;;
2019/10/30 06:02:41;;;;;;;10;9;;;;;;;7.28;86.01758;943.4035;;;;
2019/10/30 06:05:06;;;;;;;9.4;8.5;;;;;;;7.33;85.60938;943.5009;;;;
2019/10/30 06:07:40;;;;;;;9.7;8.7;;;;;;;7.34;85.5332;943.5028;;;;
2019/10/30 06:10:11;;;;;;;9.8;8.8;;;;;;;7.38;85.22266;943.4866;;;;
2019/10/30 06:12:43;;;;;;;8.3;7.5;;;;;;;7.35;84.52441;943.5901;;;;
2019/10/30 06:15:14;;;;;;;7.7;6.9;;;;;;;7.19;85.0498;943.6715;;;;
2019/10/30 06:17:40;;;;;;;6.5;5.9;;;;;;;7.15;84.38379;943.7233;;;;
2019/10/30 06:20:38;;;;;;;6.3;5.7;;;;;;;7.22;84.39746;943.759;;;;
2019/10/30 06:22:32;;;;;;;5.5;5;;;;;;;7.32;83.3877;943.8152;;;;
2019/10/30 06:25:14;;;;;;;4.8;4.4;;;;;;;7.06;83.83301;943.8486;;;;
2019/10/30 06:27:40;;;;;;;6.2;4.8;;;;;;;7.04;84.35059;943.8988;;;;
2019/10/30 06:32:46;;;;;;;4.9;4.4;;;;;;;;;;;;;
2019/10/30 06:35:17;;;;;;;5.2;4.7;;;;;;;;;;;;;
2019/10/30 06:37:43;;;;;;;5.2;4.7;;;;;;;;;;;;;
2019/10/30 06:40:09;;;;;;;5.6;4.8;;;;;;;;;;;;;
2019/10/30 06:42:33;;;;;;;6.5;5.9;;;;;;;;;;;;;
2019/10/30 06:44:59;;;;;;;6.6;5.9;;;;;;;;;;;;;
2019/10/30 06:47:24;;;;;;;6.5;5.9;;;;;;;;;;;;;
2019/10/30 06:49:52;;;;;;;5.4;4.9;;;;;;;;;;;;;
2019/10/30 06:52:15;;;;;;;6.6;5.6;;;;;;;;;;;;;
2019/10/30 06:54:39;;;;;;;6.2;5.6;;;;;;;;;;;;;
2019/10/30 06:57:05;;;;;;;6;5.4;;;;;;;;;;;;;
2019/10/30 06:59:32;;;;;;;6.2;5.6;;;;;;;;;;;;;
2019/10/30 07:01:58;;;;;;;5.4;4.9;;;;;;;;;;;;;
2019/10/30 07:04:22;;;;;;;5.4;4.9;;;;;;;;;;;;;
2019/10/30 07:06:49;;;;;;;5.2;4.7;;;;;;;;;;;;;
2019/10/30 07:09:20;;;;;;;5;4.6;;;;;;;;;;;;;
2019/10/30 07:11:41;;;;;;;5.2;4.7;;;;;;;;;;;;;
2019/10/30 07:14:10;;;;;;;6.2;5.2;;;;;;;;;;;;;
2019/10/30 07:16:35;;;;;;;4.4;4;;;;;;;;;;;;;
2019/10/30 07:19:00;;;;;;;4.8;4.4;;;;;;;;;;;;;
2019/10/30 07:21:28;;;;;;;4.3;3.9;;;;;;;;;;;;;
2019/10/30 07:23:50;;;;;;;4.1;3.7;;;;;;;;;;;;;
2019/10/30 07:26:14;;;;;;;4.2;3.6;;;;;;;;;;;;;
2019/10/30 07:28:45;;;;;;;3.8;3.5;;;;;;;;;;;;;
2019/10/30 07:31:09;;;;;;;3.6;3.3;;;;;;;;;;;;;
2019/10/30 07:33:35;;;;;;;3.7;3.3;;;;;;;;;;;;;
2019/10/30 07:36:17;;;;;;;3.3;3;;;;;;;;;;;;;
2019/10/30 07:38:42;;;;;;;3.6;3.3;;;;;;;;;;;;;
2019/10/30 07:41:14;;;;;;;3.5;3.2;;;;;;;;;;;;;
2019/10/30 07:46:09;;;;;;;3.6;2.8;;;;;;;;;;;;;
2019/10/30 07:48:32;;;;;;;3;2.7;;;;;;;;;;;;;
2019/10/30 07:50:59;;;;;;;3;2.7;;;;;;;;;;;;;
2019/10/30 07:53:23;;;;;;;3.5;3;;;;;;;;;;;;;
2019/10/30 07:55:48;;;;;;;4.1;3.1;;;;;;;;;;;;;
2019/10/30 07:58:12;;;;;;;3.3;2.9;;;;;;;;;;;;;
2019/10/30 08:00:42;;;;;;;3.7;3.3;;;;;;;;;;;;;
2019/10/30 08:03:04;;;;;;;5.1;3.3;;;;;;;;;;;;;
2019/10/30 08:05:27;;;;;;;3.4;3.1;;;;;;;;;;;;;
2019/10/30 08:07:54;;;;;;;3.8;3;;;;;;;;;;;;;
2019/10/30 08:12:46;;;;;;;3.4;3.1;;;;;;;;;;;;;
2019/10/30 08:15:11;;;;;;;5;3.7;;;;;;;;;;;;;
2019/10/30 08:17:34;;;;;;;3.5;3.2;;;;;;;;;;;;;
2019/10/30 08:19:59;;;;;;;2.9;2.6;;;;;;;;;;;;;
2019/10/30 08:22:24;;;;;;;3.3;3;;;;;;;;;;;;;
2019/10/30 08:24:52;;;;;;;3.8;3.3;;;;;;;;;;;;;
2019/10/30 08:27:15;;;;;;;3.2;2.9;;;;;;;;;;;;;
2019/10/30 08:29:40;;;;;;;4.7;2.9;;;;;;;;;;;;;
2019/10/30 08:32:05;;;;;;;3.5;3;;;;;;;;;;;;;
2019/10/30 08:34:30;;;;;;;2.9;2.6;;;;;;;;;;;;;
2019/10/30 08:37:01;;;;;;;4.2;3.3;;;;;;;;;;;;;
2019/10/30 08:39:21;;;;;;;2.8;2.6;;;;;;;;;;;;;
2019/10/30 08:41:47;;;;;;;3.4;3.1;;;;;;;;;;;;;
2019/10/30 08:44:14;;;;;;;3.3;3;;;;;;;;;;;;;
2019/10/30 08:46:42;;;;;;;3.4;3.1;;;;;;;;;;;;;
2019/10/30 08:49:06;;;;;;;3.4;3.1;;;;;;;;;;;;;
2019/10/30 08:51:31;;;;;;;3.1;2.8;;;;;;;;;;;;;
2019/10/30 08:53:56;;;;;;;3.1;2.3;;;;;;;;;;;;;
2019/10/30 08:56:23;;;;;;;2.6;2.1;;;;;;;;;;;;;
2019/10/30 08:58:46;;;;;;;3.4;2.7;;;;;;;;;;;;;
2019/10/30 09:01:12;;;;;;;4.1;3.5;;;;;;;;;;;;;
2019/10/30 09:03:37;;;;;;;5.9;4.1;;;;;;;;;;;;;
2019/10/30 09:06:08;;;;;;;4.7;4;;;;;;;;;;;;;
2019/10/30 09:08:30;;;;;;;5.5;4.2;;;;;;;;;;;;;
2019/10/30 09:11:01;;;;;;;5.3;4.8;;;;;;;;;;;;;
2019/10/30 09:13:28;;;;;;;4.2;3.8;;;;;;;;;;;;;
2019/10/30 09:15:48;;;;;;;3.4;3.1;;;;;;;;;;;;;
2019/10/30 09:18:12;;;;;;;3.3;3;;;;;;;;;;;;;
2019/10/30 09:20:37;;;;;;;3.5;3.2;;;;;;;;;;;;;
2019/10/30 09:23:01;;;;;;;3.3;2.9;;;;;;;;;;;;;
2019/10/30 09:25:28;;;;;;;2.9;2.6;;;;;;;;;;;;;
2019/10/30 09:27:53;;;;;;;2.9;2.5;;;;;;;;;;;;;
2019/10/30 09:30:18;;;;;;;2.7;2.4;;;;;;;;;;;;;
2019/10/30 09:32:42;;;;;;;2.4;2.2;;;;;;;;;;;;;
2019/10/30 09:35:09;;;;;;;2.8;2.5;;;;;;;;;;;;;
2019/10/30 09:37:33;;;;;;;2.5;2.3;;;;;;;;;;;;;
2019/10/30 09:39:58;;;;;;;2.5;2.3;;;;;;;;;;;;;
2019/10/30 09:42:23;;;;;;;2.7;2.5;;;;;;;;;;;;;
2019/10/30 09:44:53;;;;;;;3;2.4;;;;;;;;;;;;;
2019/10/30 09:47:16;;;;;;;2.8;2.1;;;;;;;;;;;;;
2019/10/30 09:49:42;;;;;;;4.5;3.2;;;;;;;;;;;;;
2019/10/30 09:52:06;;;;;;;5.9;4.8;;;;;;;;;;;;;
2019/10/30 09:54:30;;;;;;;5.2;4.1;;;;;;;;;;;;;
2019/10/30 09:56:55;;;;;;;5.6;4.4;;;;;;;;;;;;;
2019/10/30 09:59:21;;;;;;;3.5;2.8;;;;;;;;;;;;;
2019/10/30 10:01:46;;;;;;;2.9;2.4;;;;;;;;;;;;;
2019/10/30 10:04:11;;;;;;;3.2;2.5;;;;;;;;;;;;;
2019/10/30 10:06:36;;;;;;;3.9;2.9;;;;;;;;;;;;;
2019/10/30 10:09:00;;;;;;;4.2;1.8;;;;;;;;;;;;;
2019/10/30 10:11:32;;;;;;;3.2;2.1;;;;;;;;;;;;;
2019/10/30 10:14:00;;;;;;;4.5;1.9;;;;;;;;;;;;;
2019/10/30 10:16:24;;;;;;;2.4;1.8;;;;;;;;;;;;;
2019/10/30 10:18:50;;;;;;;3.2;2.6;;;;;;;;;;;;;
2019/10/30 10:21:16;;;;;;;3.1;2.3;;;;;;;;;;;;;
2019/10/30 10:23:45;;;;;;;3.5;2.4;;;;;;;;;;;;;
2019/10/30 10:26:07;;;;;;;3.9;2.8;;;;;;;;;;;;;
2019/10/30 10:28:31;;;;;;;3.8;2.6;;;;;;;;;;;;;
2019/10/30 10:30:56;;;;;;;3.2;2.4;;;;;;;;;;;;;
2019/10/30 10:33:23;;;;;;;4.1;2.6;;;;;;;;;;;;;
2019/10/30 10:35:46;;;;;;;3.1;2.5;;;;;;;;;;;;;
2019/10/30 10:38:22;;;;;;;4.2;3;;;;;;;;;;;;;
2019/10/30 10:40:46;;;;;;;6.6;3.9;;;;;;;;;;;;;
2019/10/30 10:43:10;;;;;;;9.2;5.5;;;;;;;;;;;;;
2019/10/30 10:45:35;;;;;;;4.9;3.4;;;;;;;;;;;;;
2019/10/30 10:48:01;;;;;;;4.2;2.8;;;;;;;;;;;;;
2019/10/30 10:50:27;;;;;;;3.7;2.4;;;;;;;;;;;;;
2019/10/30 10:52:50;;;;;;;8.1;5.3;;;;;;;;;;;;;
2019/10/30 10:55:19;;;;;;;5;3.3;;;;;;;;;;;;;
2019/10/30 10:57:40;;;;;;;6.2;3.8;;;;;;;;;;;;;
2019/10/30 11:00:07;;;;;;;7.4;4.3;;;;;;;;;;;;;
2019/10/30 11:02:31;;;;;;;2.2;1.5;;;;;;;;;;;;;
2019/10/30 11:05:01;;;;;;;2.6;1.9;;;;;;;;;;;;;
2019/10/30 11:07:24;;;;;;;3.1;1.8;;;;;;;;;;;;;
2019/10/30 11:09:49;;;;;;;21.3;19.1;;;;;;;;;;;;;
2019/10/30 11:12:15;;;;;;;4.2;3.7;;;;;;;;;;;;;
2019/10/30 11:14:40;;;;;;;3.3;2.2;;;;;;;;;;;;;
2019/10/30 11:17:07;;;;;;;6.4;2.7;;;;;;;;;;;;;
2019/10/30 11:19:29;;;;;;;4;2.6;;;;;;;;;;;;;
2019/10/30 11:21:57;;;;;;;4.9;3.2;;;;;;;;;;;;;
2019/10/30 11:24:23;;;;;;;4.5;3.9;;;;;;;;;;;;;
2019/10/30 11:26:47;;;;;;;6.3;4.4;;;;;;;;;;;;;
2019/10/30 11:29:13;;;;;;;5.4;4.1;;;;;;;;;;;;;
2019/10/30 11:31:41;;;;;;;4.1;3.2;;;;;;;;;;;;;
2019/10/30 11:34:04;;;;;;;3.4;2.5;;;;;;;;;;;;;
2019/10/30 11:36:28;;;;;;;3.1;2.1;;;;;;;;;;;;;
2019/10/30 11:38:53;;;;;;;2.7;1.9;;;;;;;;;;;;;
2019/10/30 11:41:24;;;;;;;3.2;2.2;;;;;;;;;;;;;
2019/10/30 11:43:44;;;;;;;2.7;2;;;;;;;;;;;;;
2019/10/30 11:46:08;;;;;;;3.4;2.1;;;;;;;;;;;;;
2019/10/30 11:48:34;;;;;;;4;3;;;;;;;;;;;;;
2019/10/30 11:51:04;;;;;;;5.4;3.7;;;;;;;;;;;;;
2019/10/30 11:53:25;;;;;;;5.6;4;;;;;;;;;;;;;
2019/10/30 11:55:50;;;;;;;5.2;3.8;;;;;;;;;;;;;
2019/10/30 11:58:18;;;;;;;5;3.8;;;;;;;;;;;;;
2019/10/30 12:00:42;;;;;;;4.8;3.5;;;;;;;;;;;;;
2019/10/30 12:03:08;;;;;;;6.1;3.8;;;;;;;;;;;;;
2019/10/30 12:10:38;;;;;;;4.3;3.1;;;;;;;;;;;;;
2019/10/30 12:12:57;;;;;;;3.3;2.6;;;;;;;;;;;;;
2019/10/30 12:15:18;;;;;;;4.3;2.7;;;;;;;;;;;;;
2019/10/30 12:17:43;;;;;;;2.8;2.3;;;;;;;;;;;;;
2019/10/30 12:20:07;;;;;;;1.9;1.5;;;;;;;;;;;;;
2019/10/30 12:22:33;;;;;;;2.8;1.7;;;;;;;;;;;;;
2019/10/30 12:25:00;;;;;;;2.6;1.9;;;;;;;;;;;;;
2019/10/30 12:27:24;;;;;;;2.2;1.6;;;;;;;;;;;;;
2019/10/30 12:29:48;;;;;;;2.3;1.7;;;;;;;;;;;;;
2019/10/30 12:32:13;;;;;;;1.9;1.7;;;;;;;;;;;;;
2019/10/30 12:34:39;;;;;;;2;1.4;;;;;;;;;;;;;
2019/10/30 12:37:06;;;;;;;1.9;1.7;;;;;;;;;;;;;
2019/10/30 12:39:31;;;;;;;2.2;1.8;;;;;;;;;;;;;
2019/10/30 12:41:55;;;;;;;2.9;1.8;;;;;;;;;;;;;
2019/10/30 12:44:21;;;;;;;1.5;1.3;;;;;;;;;;;;;
2019/10/30 12:46:46;;;;;;;1.6;1.5;;;;;;;;;;;;;
2019/10/30 12:49:13;;;;;;;1.6;1.5;;;;;;;;;;;;;
2019/10/30 12:51:41;;;;;;;2.7;1.7;;;;;;;;;;;;;
2019/10/30 12:54:03;;;;;;;2.1;1.9;;;;;;;;;;;;;
2019/10/30 12:56:33;;;;;;;2.6;2.2;;;;;;;;;;;;;
2019/10/30 12:58:57;;;;;;;2.7;2.5;;;;;;;;;;;;;
2019/10/30 13:01:24;;;;;;;3.4;3.1;;;;;;;;;;;;;
2019/10/30 13:03:47;;;;;;;3.5;3.2;;;;;;;;;;;;;
2019/10/30 13:06:16;;;;;;;4.2;3.3;;;;;;;;;;;;;
2019/10/30 13:08:39;;;;;;;3.6;2.9;;;;;;;;;;;;;
2019/10/30 13:11:04;;;;;;;3;2.7;;;;;;;;;;;;;
2019/10/30 13:13:33;;;;;;;3.4;3.1;;;;;;;;;;;;;
2019/10/30 13:15:57;;;;;;;3.7;3.2;;;;;;;;;;;;;
2019/10/30 13:18:23;;;;;;;4.2;3.5;;;;;;;;;;;;;
2019/10/30 13:20:46;;;;;;;3.1;2.8;;;;;;;;;;;;;
2019/10/30 13:23:16;;;;;;;3.1;2.8;;;;;;;;;;;;;
2019/10/30 13:25:39;;;;;;;3.1;2.7;;;;;;;;;;;;;
2019/10/30 13:28:02;;;;;;;4.1;3.4;;;;;;;;;;;;;
2019/10/30 13:30:31;;;;;;;4.1;3.5;;;;;;;;;;;;;
2019/10/30 13:32:59;;;;;;;3.8;3.4;;;;;;;;;;;;;
2019/10/30 13:35:18;;;;;;;3.6;3.2;;;;;;;;;;;;;
2019/10/30 13:37:45;;;;;;;3.7;3.3;;;;;;;;;;;;;
2019/10/30 13:40:07;;;;;;;3.4;3.1;;;;;;;;;;;;;
2019/10/30 13:42:38;;;;;;;4.9;3.6;;;;;;;;;;;;;
2019/10/30 13:45:03;;;;;;;5.1;4.1;;;;;;;;;;;;;
2019/10/30 13:47:27;;;;;;;4.9;4.3;;;;;;;;;;;;;
2019/10/30 13:49:56;;;;;;;4.6;4.2;;;;;;;;;;;;;
2019/10/30 13:52:19;;;;;;;4.9;3.7;;;;;;;;;;;;;
2019/10/30 13:54:45;;;;;;;4.1;3.8;;;;;;;;;;;;;
2019/10/30 13:57:18;;;;;;;4;3.5;;;;;;;;;;;;;
2019/10/30 13:59:36;;;;;;;4.5;3.7;;;;;;;;;;;;;
2019/10/30 14:02:00;;;;;;;4.3;3.9;;;;;;;;;;;;;
2019/10/30 14:04:35;;;;;;;5.1;4;;;;;;;;;;;;;
2019/10/30 14:07:04;;;;;;;4.6;4.2;;;;;;;;;;;;;
2019/10/30 14:09:18;;;;;;;4.5;4.1;;;;;;;;;;;;;
2019/10/30 14:11:47;;;;;;;4.7;4.2;;;;;;;;;;;;;
2019/10/30 14:14:06;;;;;;;5.1;4.1;;;;;;;;;;;;;
2019/10/30 14:16:32;;;;;;;4.8;4.2;;;;;;;;;;;;;
2019/10/30 14:18:58;;;;;;;5;4.5;;;;;;;;;;;;;
2019/10/30 14:21:22;;;;;;;5.3;4.8;;;;;;;;;;;;;
2019/10/30 14:23:50;;;;;;;5.4;4.6;;;;;;;;;;;;;
2019/10/30 14:26:12;;;;;;;5.8;4.9;;;;;;;;;;;;;
2019/10/30 14:28:40;;;;;;;5.1;4.6;;;;;;;;;;;;;
2019/10/30 14:31:06;;;;;;;5.3;4.8;;;;;;;;;;;;;
2019/10/30 14:33:33;;;;;;;4.8;4.4;;;;;;;;;;;;;
2019/10/30 14:35:58;;;;;;;5.5;5;;;;;;;;;;;;;
2019/10/30 14:38:24;;;;;;;6;5.4;;;;;;;;;;;;;
2019/10/30 14:40:51;;;;;;;6.9;5.8;;;;;;;;;;;;;
2019/10/30 14:43:18;;;;;;;6.4;5.8;;;;;;;;;;;;;
2019/10/30 14:45:45;;;;;;;6.3;5.7;;;;;;;;;;;;;
2019/10/30 14:48:15;;;;;;;6.5;5.9;;;;;;;;;;;;;
2019/10/30 14:50:36;;;;;;;7.5;6.8;;;;;;;;;;;;;
2019/10/30 14:53:01;;;;;;;7.3;6.5;;;;;;;;;;;;;
2019/10/30 14:55:29;;;;;;;6.9;6.3;;;;;;;;;;;;;
2019/10/30 14:57:53;;;;;;;7.3;6.6;;;;;;;;;;;;;
2019/10/30 15:00:18;;;;;;;7.6;6.7;;;;;;;;;;;;;
2019/10/30 15:02:44;;;;;;;7.3;6.6;;;;;;;;;;;;;
2019/10/30 15:05:12;;;;;;;7.2;6.5;;;;;;;;;;;;;
2019/10/30 15:07:37;;;;;;;6.9;6.2;;;;;;;;;;;;;
2019/10/30 15:10:00;;;;;;;7;6.4;;;;;;;;;;;;;
2019/10/30 15:12:30;;;;;;;7.6;6.9;;;;;;;;;;;;;
2019/10/30 15:14:57;;;;;;;7.7;7;;;;;;;;;;;;;
2019/10/30 15:17:16;;;;;;;7.7;6.9;;;;;;;;;;;;;
2019/10/30 15:19:41;;;;;;;8;7.3;;;;;;;;;;;;;
2019/10/30 15:22:09;;;;;;;9.2;8.1;;;;;;;;;;;;;
2019/10/30 15:24:34;;;;;;;9.1;8.1;;;;;;;;;;;;;
2019/10/30 15:26:57;;;;;;;9.6;8.7;;;;;;;;;;;;;
2019/10/30 15:29:22;;;;;;;9.2;8.3;;;;;;;;;;;;;
2019/10/30 15:31:46;;;;;;;10.1;9.1;;;;;;;;;;;;;
2019/10/30 15:34:19;;;;;;;10;9;;;;;;;;;;;;;
2019/10/30 15:36:38;;;;;;;10.9;9.8;;;;;;;;;;;;;
2019/10/30 15:39:05;;;;;;;10.2;9.2;;;;;;;;;;;;;
2019/10/30 15:41:29;;;;;;;11.2;9.9;;;;;;;;;;;;;
2019/10/30 15:43:57;;;;;;;11;9.9;;;;;;;;;;;;;
2019/10/30 15:46:22;;;;;;;11.3;10.2;;;;;;;;;;;;;
2019/10/30 15:48:45;;;;;;;10.9;9.8;;;;;;;;;;;;;
2019/10/30 15:51:11;;;;;;;11.9;10.6;;;;;;;;;;;;;
2019/10/30 15:53:35;;;;;;;11.3;10.1;;;;;;;;;;;;;
2019/10/30 15:56:07;;;;;;;11;9.9;;;;;;;;;;;;;
2019/10/30 15:58:38;;;;;;;11.7;10.5;;;;;;;;;;;;;
2019/10/30 16:00:53;;;;;;;12.1;10.8;;;;;;;;;;;;;
2019/10/30 16:03:19;;;;;;;11.6;10.5;;;;;;;;;;;;;
2019/10/30 16:05:43;;;;;;;12.3;11.1;;;;;;;;;;;;;
2019/10/30 16:08:09;;;;;;;12.8;11.5;;;;;;;;;;;;;
2019/10/30 16:10:34;;;;;;;12.7;11.4;;;;;;;;;;;;;
2019/10/30 16:13:16;;;;;;;13.3;11.8;;;;;;;;;;;;;
2019/10/30 16:15:40;;;;;;;13.1;11.7;;;;;;;;;;;;;
2019/10/30 16:18:07;;;;;;;11.9;10.7;;;;;;;;;;;;;
2019/10/30 16:20:31;;;;;;;13.2;11.8;;;;;;;;;;;;;
2019/10/30 16:23:12;;;;;;;11.8;10.7;;;;;;;;;;;;;
2019/10/30 16:25:26;;;;;;;12.2;11.1;;;;;;;;;;;;;
2019/10/30 16:27:46;;;;;;;12.6;11.4;;;;;;;;;;;;;
2019/10/30 16:30:13;;;;;;;13.6;12.2;;;;;;;;;;;;;
2019/10/30 16:32:41;;;;;;;13.4;12.1;;;;;;;;;;;;;
2019/10/30 16:35:05;;;;;;;13.4;12.1;;;;;;;;;;;;;
2019/10/30 16:37:37;;;;;;;15.5;14;;;;;;;;;;;;;
2019/10/30 16:39:57;;;;;;;14.9;13.4;;;;;;;;;;;;;
2019/10/30 16:42:23;;;;;;;15.6;14.1;;;;;;;;;;;;;
2019/10/30 16:44:47;;;;;;;15.9;14.4;;;;;;;;;;;;;
2019/10/30 16:47:17;;;;;;;16.2;14.5;;;;;;;;;;;;;
2019/10/30 16:49:42;;;;;;;16.5;14.9;;;;;;;;;;;;;
2019/10/30 16:52:04;;;;;;;17;15.3;;;;;;;;;;;;;
2019/10/30 16:54:29;;;;;;;16.7;15;;;;;;;;;;;;;
2019/10/30 16:56:56;;;;;;;16.6;14.9;;;;;;;;;;;;;
2019/10/30 16:59:19;;;;;;;15.8;14.3;;;;;;;;;;;;;
2019/10/30 17:01:52;;;;;;;16.6;14.9;;;;;;;;;;;;;
2019/10/30 17:04:16;;;;;;;16.7;15.1;;;;;;;;;;;;;
2019/10/30 17:06:46;;;;;;;16.6;14.9;;;;;;;;;;;;;
2019/10/30 17:09:12;;;;;;;17.3;15.6;;;;;;;;;;;;;
2019/10/30 17:11:36;;;;;;;17.7;15.9;;;;;;;;;;;;;
2019/10/30 17:14:07;;;;;;;17.7;15.9;;;;;;;;;;;;;
2019/10/30 17:16:30;;;;;;;17.8;16;;;;;;;;;;;;;
2019/10/30 17:18:54;;;;;;;17.7;15.9;;;;;;;;;;;;;
2019/10/30 17:21:18;;;;;;;17.6;15.8;;;;;;;;;;;;;
2019/10/30 17:23:51;;;;;;;17.3;15.6;;;;;;;;;;;;;
2019/10/30 17:31:05;;;;;;;16.9;15.2;;;;;;;;;;;;;
2019/10/30 17:33:27;;;;;;;16.5;14.9;;;;;;;;;;;;;
2019/10/30 17:36:21;;;;;;;15.5;14;;;;;;;;;;;;;
2019/10/30 17:39:18;;;;;;;15.9;14.3;;;;;;;;;;;;;
2019/10/30 17:41:29;;;;;;;15.9;14.3;;;;;;;;;;;;;
2019/10/30 17:43:54;;;;;;;16.6;14.9;;;;;;;;;;;;;
2019/10/30 17:46:20;;;;;;;16.2;14.6;;;;;;;;;;;;;
2019/10/30 17:48:46;;;;;;;16;14.4;;;;;;;;;;;;;
2019/10/30 17:54:17;;;;;;;15;13.6;;;;;;;;;;;;;
2019/10/30 17:56:35;;;;;;;14.8;13.4;;;;;;;;;;;;;
2019/10/30 17:58:59;;;;;;;14.4;13;;;;;;;;;;;;;
2019/10/30 18:01:24;;;;;;;15.5;14;;;;;;;;;;;;;
2019/10/30 18:06:25;;;;;;;15.1;13.6;;;;;;;;;;;;;
2019/10/30 18:08:52;;;;;;;15.4;13.9;;;;;;;;;;;;;
2019/10/30 18:11:19;;;;;;;15.5;14;;;;;;;;;;;;;
2019/10/30 18:13:46;;;;;;;13.6;12.3;;;;;;;;;;;;;
2019/10/30 18:16:07;;;;;;;15.8;14.3;;;;;;;;;;;;;
2019/10/30 18:18:33;;;;;;;15.5;14;;;;;;;;;;;;;
2019/10/30 18:21:00;;;;;;;14.5;13.1;;;;;;;;;;;;;
2019/10/30 18:23:24;;;;;;;14.3;12.9;;;;;;;;;;;;;
2019/10/30 18:25:47;;;;;;;13.2;11.9;;;;;;;;;;;;;
2019/10/30 18:28:14;;;;;;;13.8;12.5;;;;;;;;;;;;;
2019/10/30 18:30:48;;;;;;;14.1;12.7;;;;;;;;;;;;;
2019/10/30 18:33:07;;;;;;;13.6;12.3;;;;;;;;;;;;;
2019/10/30 18:35:31;;;;;;;13.6;12.3;;;;;;;;;;;;;
2019/10/30 18:37:59;;;;;;;13.9;12.5;;;;;;;;;;;;;
2019/10/30 18:40:24;;;;;;;14.1;12.7;;;;;;;;;;;;;
2019/10/30 18:42:48;;;;;;;13.3;12;;;;;;;;;;;;;
2019/10/30 18:45:14;;;;;;;12.6;11.3;;;;;;;;;;;;;
2019/10/30 18:47:41;;;;;;;11.8;10.7;;;;;;;;;;;;;
2019/10/30 18:52:29;;;;;;;11.9;10.8;;;;;;;;;;;;;
2019/10/30 18:54:54;;;;;;;12.8;11.5;;;;;;;;;;;;;
2019/10/30 18:57:24;;;;;;;12;10.9;;;;;;;;;;;;;
2019/10/30 18:59:46;;;;;;;12.4;11.2;;;;;;;;;;;;;
2019/10/30 19:02:11;;;;;;;13.7;12.4;;;;;;;;;;;;;
2019/10/30 19:04:38;;;;;;;12.4;11.2;;;;;;;;;;;;;
2019/10/30 19:07:04;;;;;;;10.7;9.7;;;;;;;;;;;;;
2019/10/30 19:09:29;;;;;;;11.8;10.7;;;;;;;;;;;;;
2019/10/30 19:11:54;;;;;;;47.5;43.1;;;;;;;;;;;;;
2019/10/30 19:14:21;;;;;;;99.1;89.8;;;;;;;;;;;;;
2019/10/30 19:16:47;;;;;;;15.3;13.8;;;;;;;;;;;;;
2019/10/30 19:19:11;;;;;;;21.6;18.4;;;;;;;;;;;;;
2019/10/30 19:21:37;;;;;;;60.5;54.6;;;;;;;;;;;;;
2019/10/30 19:24:02;;;;;;;17.7;15.9;;;;;;;;;;;;;
2019/10/30 19:26:27;;;;;;;15.5;13.9;;;;;;;;;;;;;
2019/10/30 19:28:51;;;;;;;19.4;16.6;;;;;;;;;;;;;
2019/10/30 19:31:21;;;;;;;23.2;20.9;;;;;;;;;;;;;
2019/10/30 19:33:43;;;;;;;22.3;19.6;;;;;;;;;;;;;
2019/10/30 19:36:07;;;;;;;24.5;20;;;;;;;;;;;;;
2019/10/30 19:38:32;;;;;;;26.4;22.2;;;;;;;;;;;;;
2019/10/30 19:40:57;;;;;;;26.5;21.6;;;;;;;;;;;;;
2019/10/30 19:43:27;;;;;;;23.7;20;;;;;;;;;;;;;
2019/10/30 19:45:52;;;;;;;21.8;19.6;;;;;;;;;;;;;
2019/10/30 19:48:21;;;;;;;17.5;15.7;;;;;;;;;;;;;
2019/10/30 19:50:44;;;;;;;19.3;17.3;;;;;;;;;;;;;
2019/10/30 19:53:08;;;;;;;18.1;16.1;;;;;;;;;;;;;
2019/10/30 19:55:36;;;;;;;53.2;45.4;;;;;;;;;;;;;